Time;durP1;ratioP1;P1;durP2;ratioP2;P2;SDS_P1;SDS_P2;PMS_P1;PMS_P2;Temp;Humidity;BMP_temperature;BMP_pressure;BME280_temperature;BME280_humidity;BME280_pressure;Samples;Min_cycle;Max_cycle;Signal;HPM_P1;HPM_P2
2023/06/15 07:59:24;;;;;;;;;;;;;;;6.70;100.00;99755.28;6178229;23;19935;-91
2023/06/15 08:01:55;;;;;;;;;;;;;;;6.76;100.00;99750.72;6194132;23;19956;-95
2023/06/15 08:04:20;;;;;;;;;;;;;;;6.76;100.00;99754.22;6169246;23;19912;-95
2023/06/15 08:06:46;;;;;;;;;;;;;;;6.70;100.00;99747.38;6166872;23;19913;-90
2023/06/15 08:09:13;;;;;;;;;;;;;;;6.70;100.00;99755.28;6190876;23;20015;-94
2023/06/15 08:11:39;;;;;;;;;;;;;;;6.66;100.00;99745.72;6189258;23;19920;-89
2023/06/15 08:16:52;;;;;;;;;;;;;;;6.72;100.00;99748.19;6174272;23;19944;-86
2023/06/15 08:19:37;;;;;;;;;;;;;;;6.71;100.00;99746.44;6192433;23;20321;-87
2023/06/15 08:22:03;;;;;;;;;;;;;;;6.79;100.00;99745.38;6190484;23;19916;-87
2023/06/15 08:24:29;;;;;;;;;;;;;;;6.92;100.00;99752.03;6162539;23;19947;-88
2023/06/15 08:26:57;;;;;;;;;;;;;;;6.80;100.00;99752.38;6189074;23;19922;-88
2023/06/15 08:29:22;;;;;;;;;;;;;;;6.80;100.00;99750.59;6185192;23;19964;-85
2023/06/15 08:32:12;;;;;;;;;;;;;;;6.77;100.00;99748.06;6190749;23;19920;-87
2023/06/15 08:34:38;;;;;;;;;;;;;;;6.88;100.00;99747.75;6188105;23;20370;-87
2023/06/15 08:37:03;;;;;;;;;;;;;;;6.93;100.00;99743.22;6162846;23;19913;-88
2023/06/15 08:39:32;;;;;;;;;;;;;;;6.89;100.00;99741.56;6190431;23;19923;-86
2023/06/15 08:41:57;;;;;;;;;;;;;;;6.95;100.00;99743.19;6188862;23;19912;-85
2023/06/15 08:44:26;;;;;;;;;;;;;;;6.81;100.00;99743.56;6189287;23;20344;-85
2023/06/15 08:46:51;;;;;;;;;;;;;;;6.77;100.00;99737.53;6190320;23;19917;-86
2023/06/15 08:49:18;;;;;;;;;;;;;;;9.01;100.00;99735.56;6190966;23;19966;-84
2023/06/15 08:51:45;;;;;;;;;;;;;;;7.36;100.00;99749.00;6192143;23;20405;-84
2023/06/15 08:54:12;;;;;;;;;;;;;;;7.07;100.00;99748.09;6172268;23;20339;-85
2023/06/15 08:56:40;;;;;;;;;;;;;;;6.97;100.00;99750.09;6191179;23;19951;-83
2023/06/15 08:59:06;;;;;;;;;;;;;;;6.94;100.00;99744.97;6163484;23;19958;-84
2023/06/15 09:01:34;;;;;;;;;;;;;;;7.01;100.00;99743.00;6193017;23;19916;-86
2023/06/15 09:04:00;;;;;;;;;;;;;;;6.93;100.00;99742.38;6192074;23;20324;-91
2023/06/15 09:06:27;;;;;;;;;;;;;;;6.88;100.00;99745.97;6166363;23;19919;-85
2023/06/15 09:08:52;;;;;;;;;;;;;;;6.97;100.00;99738.72;6192481;23;20247;-84
2023/06/15 09:11:21;;;;;;;;;;;;;;;6.93;100.00;99743.22;6193152;23;19960;-89
2023/06/15 09:13:48;;;;;;;;;;;;;;;6.88;100.00;99734.59;6195179;23;19918;-90
2023/06/15 09:16:14;;;;;;;;;;;;;;;6.95;100.00;99730.84;6195868;23;19965;-85
2023/06/15 09:18:46;;;;;;;;;;;;;;;6.96;100.00;99732.59;6192875;23;19942;-84
2023/06/15 09:21:15;;;;;;;;;;;;;;;6.85;100.00;99730.25;6188476;23;19939;-85
2023/06/15 09:23:44;;;;;;;;;;;;;;;6.88;100.00;99726.69;6172484;23;19959;-84
2023/06/15 09:26:19;;;;;;;;;;;;;;;6.94;100.00;99734.41;6168783;23;19919;-85
2023/06/15 09:28:45;;;;;;;;;;;;;;;6.93;100.00;99732.69;6198327;23;19915;-84
2023/06/15 09:31:27;;;;;;;;;;;;;;;6.90;100.00;99727.50;6194038;23;20296;-84
2023/06/15 09:34:11;;;;;;;;;;;;;;;7.09;100.00;99744.50;6196331;23;19999;-85
2023/06/15 09:36:40;;;;;;;;;;;;;;;6.91;100.00;99737.13;6167556;23;19923;-85
2023/06/15 09:39:05;;;;;;;;;;;;;;;6.83;100.00;99734.72;6193427;23;19994;-85
2023/06/15 09:41:32;;;;;;;;;;;;;;;6.94;100.00;99733.53;6193517;23;19920;-85
2023/06/15 09:44:00;;;;;;;;;;;;;;;6.88;100.00;99737.22;6196539;23;19920;-85
2023/06/15 09:46:27;;;;;;;;;;;;;;;6.84;100.00;99731.16;6193836;23;19927;-86
2023/06/15 09:49:25;;;;;;;;;;;;;;;6.86;100.00;99728.47;6187061;23;20022;-89
2023/06/15 09:51:52;;;;;;;;;;;;;;;6.82;100.00;99729.50;6190669;23;19938;-85
2023/06/15 09:54:20;;;;;;;;;;;;;;;6.82;100.00;99725.06;6194167;23;19919;-86
2023/06/15 09:56:50;;;;;;;;;;;;;;;6.82;100.00;99725.06;6192221;23;19916;-86
2023/06/15 09:59:15;;;;;;;;;;;;;;;6.88;100.00;99721.41;6164172;23;19987;-85
2023/06/15 10:01:44;;;;;;;;;;;;;;;6.81;100.00;99725.13;6194021;23;19916;-92
2023/06/15 10:04:10;;;;;;;;;;;;;;;6.87;100.00;99730.22;6161882;23;19924;-91
2023/06/15 10:07:00;;;;;;;;;;;;;;;6.84;100.00;99735.56;6187726;23;19916;-90
2023/06/15 10:09:29;;;;;;;;;;;;;;;6.90;100.00;99728.34;6185588;23;19998;-88
2023/06/15 10:12:02;;;;;;;;;;;;;;;6.86;100.00;99725.84;6159116;23;20312;-87
2023/06/15 10:14:47;;;;;;;;;;;;;;;6.86;100.00;99731.13;6184552;23;20233;-85
2023/06/15 10:17:13;;;;;;;;;;;;;;;6.94;100.00;99728.28;6184925;23;19912;-86
2023/06/15 10:19:43;;;;;;;;;;;;;;;6.89;100.00;99720.50;6184967;23;20247;-88
2023/06/15 10:22:14;;;;;;;;;;;;;;;6.81;100.00;99723.38;6158836;23;19928;-91
2023/06/15 10:24:40;;;;;;;;;;;;;;;6.83;100.00;99723.31;6186332;23;19912;-94
2023/06/15 10:27:06;;;;;;;;;;;;;;;6.82;100.00;99722.44;6187227;23;19955;-87
2023/06/15 10:29:51;;;;;;;;;;;;;;;6.91;100.00;99729.25;6160788;23;19916;-87
2023/06/15 10:32:43;;;;;;;;;;;;;;;6.89;100.00;99724.00;6184947;23;19912;-84
2023/06/15 10:35:19;;;;;;;;;;;;;;;6.91;100.00;99719.56;6152081;23;19963;-88
2023/06/15 10:38:05;;;;;;;;;;;;;;;6.89;100.00;99713.47;6159248;23;19919;-84
2023/06/15 10:40:32;;;;;;;;;;;;;;;6.86;100.00;99712.69;6159026;23;19912;-90
2023/06/15 10:43:00;;;;;;;;;;;;;;;6.78;100.00;99718.19;6182959;23;19986;-82
2023/06/15 10:48:29;;;;;;;;;;;;;;;6.76;100.00;99713.88;6185038;23;19928;-92
2023/06/15 10:51:04;;;;;;;;;;;;;;;6.82;100.00;99713.69;6184790;23;20030;-90
2023/06/15 10:53:34;;;;;;;;;;;;;;;6.79;100.00;99708.50;6158299;23;19946;-88
2023/06/15 10:58:50;;;;;;;;;;;;;;;6.85;100.00;99718.88;6180363;23;20305;-91
2023/06/15 11:01:19;;;;;;;;;;;;;;;6.88;100.00;99716.16;6158753;23;19913;-87
2023/06/15 11:03:44;;;;;;;;;;;;;;;6.85;100.00;99719.72;6184673;23;19917;-83
2023/06/15 11:06:21;;;;;;;;;;;;;;;6.85;100.00;99716.25;6158323;23;19954;-84
2023/06/15 11:08:46;;;;;;;;;;;;;;;6.87;100.00;99715.28;6184602;23;19912;-83
2023/06/15 11:14:00;;;;;;;;;;;;;;;6.97;100.00;99707.97;6172016;23;19970;-84
2023/06/15 11:25:34;;;;;;;;;;;;;;;6.97;100.00;99710.59;6184709;23;19943;-83
2023/06/15 11:27:59;;;;;;;;;;;;;;;6.90;100.00;99709.06;6156875;23;20244;-85
2023/06/15 11:30:24;;;;;;;;;;;;;;;6.93;100.00;99708.97;6158614;23;19908;-83
2023/06/15 11:32:58;;;;;;;;;;;;;;;6.98;100.00;99717.59;6158055;23;19994;-87
2023/06/15 11:35:23;;;;;;;;;;;;;;;7.00;100.00;99709.66;6184583;23;19958;-83
2023/06/15 11:37:48;;;;;;;;;;;;;;;6.87;100.00;99709.16;6184266;23;20327;-87
2023/06/15 11:40:16;;;;;;;;;;;;;;;6.95;100.00;99708.94;6158542;23;19920;-83
2023/06/15 11:42:41;;;;;;;;;;;;;;;6.91;100.00;99705.53;6156609;23;19912;-84
2023/06/15 11:45:12;;;;;;;;;;;;;;;6.89;100.00;99704.69;6185833;23;19947;-89
2023/06/15 11:47:40;;;;;;;;;;;;;;;6.88;100.00;99703.00;6186074;23;19908;-86
2023/06/15 11:50:06;;;;;;;;;;;;;;;6.85;100.00;99703.94;6186435;23;20347;-84
2023/06/15 11:52:31;;;;;;;;;;;;;;;6.83;100.00;99697.84;6186548;23;19909;-84
2023/06/15 11:55:05;;;;;;;;;;;;;;;6.84;100.00;99693.44;6160250;23;19917;-90
2023/06/15 11:57:32;;;;;;;;;;;;;;;6.87;100.00;99688.94;6158397;23;19920;-91
2023/06/15 11:59:59;;;;;;;;;;;;;;;6.86;100.00;99694.25;6186131;23;19916;-88
2023/06/15 12:02:24;;;;;;;;;;;;;;;6.88;100.00;99690.66;6186629;23;20004;-91
2023/06/15 12:04:53;;;;;;;;;;;;;;;6.85;100.00;99697.81;6186232;23;19940;-89
2023/06/15 12:07:18;;;;;;;;;;;;;;;6.89;100.00;99694.16;6186115;23;20391;-92
2023/06/15 12:09:44;;;;;;;;;;;;;;;6.84;100.00;99685.53;6178897;23;19924;-87
2023/06/15 12:12:26;;;;;;;;;;;;;;;6.84;100.00;99693.44;6159307;23;19919;-85
2023/06/15 12:14:53;;;;;;;;;;;;;;;6.90;100.00;99680.09;6160223;23;19943;-93
2023/06/15 12:17:25;;;;;;;;;;;;;;;6.85;100.00;99682.84;6186177;23;19991;-88
2023/06/15 12:19:57;;;;;;;;;;;;;;;6.84;100.00;99677.63;6159874;23;19912;-92
2023/06/15 12:22:31;;;;;;;;;;;;;;;15.33;100.00;99658.56;6186094;23;19912;-85
2023/06/15 12:24:58;;;;;;;;;;;;;;;8.68;100.00;99672.47;6187163;23;19927;-86
2023/06/15 12:27:24;;;;;;;;;;;;;;;7.77;100.00;99680.88;6186084;23;19919;-89
2023/06/15 12:30:06;;;;;;;;;;;;;;;7.41;100.00;99684.66;6159831;23;19966;-91
2023/06/15 12:32:31;;;;;;;;;;;;;;;7.25;100.00;99680.81;6159630;23;20316;-91
2023/06/15 12:34:58;;;;;;;;;;;;;;;7.13;100.00;99689.06;6159878;23;19923;-91
2023/06/15 12:37:23;;;;;;;;;;;;;;;7.12;100.00;99684.72;6159583;23;19912;-86
2023/06/15 12:39:51;;;;;;;;;;;;;;;7.19;100.00;99676.56;6186018;23;19943;-93
2023/06/15 12:42:19;;;;;;;;;;;;;;;7.10;100.00;99679.50;6158493;23;19995;-91
2023/06/15 12:44:44;;;;;;;;;;;;;;;7.00;100.00;99672.78;6186163;23;19966;-94
2023/06/15 12:47:09;;;;;;;;;;;;;;;7.00;100.00;99672.78;6185771;23;19916;-92
2023/06/15 12:49:35;;;;;;;;;;;;;;;7.00;100.00;99668.34;6185663;23;19970;-91
2023/06/15 12:52:00;;;;;;;;;;;;;;;6.92;100.00;99667.72;6185514;23;19924;-87
2023/06/15 12:54:26;;;;;;;;;;;;;;;6.91;100.00;99671.28;6159180;23;19948;-88
2023/06/15 12:56:54;;;;;;;;;;;;;;;6.90;100.00;99661.66;6184947;23;20341;-89
2023/06/15 12:59:19;;;;;;;;;;;;;;;6.88;100.00;99655.56;6183929;23;19916;-86
2023/06/15 13:01:47;;;;;;;;;;;;;;;6.86;100.00;99654.72;6159418;23;20343;-90
2023/06/15 13:04:12;;;;;;;;;;;;;;;6.93;100.00;99661.56;6159341;23;19952;-88
2023/06/15 13:06:40;;;;;;;;;;;;;;;6.94;100.00;99652.75;6185572;23;19919;-88
2023/06/15 13:09:05;;;;;;;;;;;;;;;7.10;100.00;99650.53;6152277;23;20583;-89
2023/06/15 13:11:31;;;;;;;;;;;;;;;6.99;100.00;99648.22;6128357;23;19921;-90
2023/06/15 13:13:57;;;;;;;;;;;;;;;7.07;100.00;99661.16;6151479;23;19919;-89
2023/06/15 13:16:22;;;;;;;;;;;;;;;7.06;100.00;99659.41;6152773;23;19999;-90
2023/06/15 13:18:47;;;;;;;;;;;;;;;7.03;100.00;99657.72;6128266;23;19935;-90
2023/06/15 13:21:12;;;;;;;;;;;;;;;7.01;100.00;99650.78;6128037;23;19923;-88
2023/06/15 13:23:40;;;;;;;;;;;;;;;7.03;100.00;99660.34;6152816;23;19912;-89
2023/06/15 13:26:05;;;;;;;;;;;;;;;7.00;100.00;99655.19;6152604;23;19916;-88
2023/06/15 13:28:31;;;;;;;;;;;;;;;7.00;100.00;99651.69;6151818;23;20348;-88
2023/06/15 13:30:56;;;;;;;;;;;;;;;6.91;100.00;99650.22;6127907;23;19975;-88
2023/06/15 13:33:24;;;;;;;;;;;;;;;6.95;100.00;99657.09;6164513;23;19923;-90
2023/06/15 13:35:49;;;;;;;;;;;;;;;6.87;100.00;99653.84;6185241;23;19912;-90
2023/06/15 13:38:15;;;;;;;;;;;;;;;6.86;100.00;99657.38;6184709;23;20336;-87
2023/06/15 13:40:40;;;;;;;;;;;;;;;6.89;100.00;99647.63;6184956;23;20016;-89
2023/06/15 13:43:05;;;;;;;;;;;;;;;6.83;100.00;99655.72;6183363;23;19912;-87
2023/06/15 13:45:30;;;;;;;;;;;;;;;6.85;100.00;99645.97;6185127;23;19912;-90
2023/06/15 13:47:56;;;;;;;;;;;;;;;6.93;100.00;99651.03;6158654;23;19931;-89
2023/06/15 13:50:21;;;;;;;;;;;;;;;6.86;100.00;99645.09;6158770;23;19912;-91
2023/06/15 13:52:46;;;;;;;;;;;;;;;6.85;100.00;99647.75;6184623;23;19916;-87
2023/06/15 13:55:12;;;;;;;;;;;;;;;6.86;100.00;99652.09;6158961;23;19919;-88
2023/06/15 13:57:38;;;;;;;;;;;;;;;6.86;100.00;99652.09;6156951;23;19959;-89
2023/06/15 14:00:07;;;;;;;;;;;;;;;6.92;100.00;99651.91;6184783;23;19912;-88
2023/06/15 14:02:33;;;;;;;;;;;;;;;7.01;100.00;99651.66;6158956;23;20391;-87
2023/06/15 14:04:58;;;;;;;;;;;;;;;6.97;100.00;99647.38;6184715;23;19912;-89
2023/06/15 14:07:24;;;;;;;;;;;;;;;7.02;100.00;99652.50;6184747;23;20316;-88
2023/06/15 14:09:49;;;;;;;;;;;;;;;6.98;100.00;99658.78;6185045;23;19954;-89
2023/06/15 14:12:15;;;;;;;;;;;;;;;6.89;100.00;99642.34;6183333;23;19923;-89
2023/06/15 14:14:40;;;;;;;;;;;;;;;6.87;100.00;99645.94;6184796;23;19918;-90
2023/06/15 14:17:05;;;;;;;;;;;;;;;6.87;100.00;99643.31;6184632;23;19920;-90
2023/06/15 14:19:31;;;;;;;;;;;;;;;6.85;100.00;99640.72;6185106;23;19913;-89
2023/06/15 14:21:56;;;;;;;;;;;;;;;6.84;100.00;99638.13;6184533;23;20248;-92
2023/06/15 14:24:21;;;;;;;;;;;;;;;6.84;100.00;99643.38;6184836;23;19919;-87
2023/06/15 14:26:47;;;;;;;;;;;;;;;6.84;100.00;99644.25;6158482;23;19913;-88
2023/06/15 14:29:15;;;;;;;;;;;;;;;6.84;100.00;99640.75;6156908;23;20035;-87
2023/06/15 14:31:49;;;;;;;;;;;;;;;6.85;100.00;99642.50;6184717;23;19923;-88
2023/06/15 14:34:23;;;;;;;;;;;;;;;6.88;100.00;99645.03;6184897;23;19918;-89
2023/06/15 14:36:53;;;;;;;;;;;;;;;6.89;100.00;99637.09;6184597;23;19955;-88
2023/06/15 14:39:19;;;;;;;;;;;;;;;6.92;100.00;99633.47;6184450;23;20018;-88
2023/06/15 14:41:44;;;;;;;;;;;;;;;6.94;100.00;99629.06;6158394;23;19935;-91
2023/06/15 14:44:10;;;;;;;;;;;;;;;6.88;100.00;99634.50;6182837;23;19909;-88
2023/06/15 14:46:36;;;;;;;;;;;;;;;6.92;100.00;99630.84;6158209;23;19920;-87
2023/06/15 14:49:02;;;;;;;;;;;;;;;6.91;100.00;99635.25;6158004;23;19962;-88
2023/06/15 14:51:27;;;;;;;;;;;;;;;6.89;100.00;99633.56;6184890;23;19960;-89
2023/06/15 14:53:53;;;;;;;;;;;;;;;6.89;100.00;99630.94;6184508;23;19913;-88
2023/06/15 14:56:18;;;;;;;;;;;;;;;6.87;100.00;99630.97;6158492;23;20368;-88
2023/06/15 14:58:43;;;;;;;;;;;;;;;6.93;100.00;99632.59;6156530;23;19935;-88
2023/06/15 15:01:11;;;;;;;;;;;;;;;6.84;100.00;99638.13;6158048;23;20197;-88
2023/06/15 15:03:36;;;;;;;;;;;;;;;6.83;100.00;99623.22;6158306;23;20005;-88
2023/06/15 15:06:02;;;;;;;;;;;;;;;6.93;100.00;99639.63;6158430;23;19921;-88
2023/06/15 15:08:31;;;;;;;;;;;;;;;6.90;100.00;99632.69;6158479;23;20000;-90
2023/06/15 15:10:56;;;;;;;;;;;;;;;6.84;100.00;99635.50;6184768;23;19924;-87
2023/06/15 15:13:21;;;;;;;;;;;;;;;6.84;100.00;99630.22;6182962;23;19951;-88
2023/06/15 15:15:46;;;;;;;;;;;;;;;6.88;100.00;99616.06;6184540;23;19928;-90
2023/06/15 15:18:12;;;;;;;;;;;;;;;6.87;100.00;99627.50;6184386;23;19919;-89
2023/06/15 15:20:39;;;;;;;;;;;;;;;6.93;100.00;99621.19;6160932;23;19935;-90
2023/06/15 15:23:07;;;;;;;;;;;;;;;6.96;100.00;99624.59;6185400;23;19920;-92
2023/06/15 15:25:35;;;;;;;;;;;;;;;6.89;100.00;99623.03;6160082;23;19958;-90
2023/06/15 15:28:03;;;;;;;;;;;;;;;6.89;100.00;99620.41;6185017;23;19936;-89
2023/06/15 15:30:30;;;;;;;;;;;;;;;6.83;100.00;99612.69;6186167;23;19913;-90
2023/06/15 15:32:59;;;;;;;;;;;;;;;6.86;100.00;99618.75;6187682;23;19916;-94
2023/06/15 15:35:35;;;;;;;;;;;;;;;6.83;100.00;99623.22;6160547;23;19913;-90
2023/06/15 15:38:00;;;;;;;;;;;;;;;6.99;100.00;99615.72;6161406;23;19986;-88
2023/06/15 15:43:28;;;;;;;;;;;;;;;6.93;100.00;99618.56;6184824;23;20252;-86
2023/06/15 15:45:53;;;;;;;;;;;;;;;6.87;100.00;99615.19;6186548;23;19912;-87
2023/06/15 15:48:18;;;;;;;;;;;;;;;6.85;100.00;99610.88;6160402;23;20239;-87
2023/06/15 15:50:48;;;;;;;;;;;;;;;6.88;100.00;99613.44;6160701;23;19916;-92
2023/06/15 15:53:34;;;;;;;;;;;;;;;6.87;100.00;99612.53;6161917;23;19943;-91
2023/06/15 15:55:59;;;;;;;;;;;;;;;6.84;100.00;99610.00;6161380;23;19912;-95
2023/06/15 16:00:49;;;;;;;;;;;;;;;6.88;100.00;99605.53;6184404;23;19920;-91
2023/06/15 16:03:15;;;;;;;;;;;;;;;6.90;100.00;99607.19;6186648;23;20305;-87
2023/06/15 16:05:40;;;;;;;;;;;;;;;6.84;100.00;99602.09;6160455;23;19912;-87
2023/06/15 16:08:08;;;;;;;;;;;;;;;6.85;100.00;99603.00;6161211;23;19987;-90
2023/06/15 16:13:53;;;;;;;;;;;;;;;6.94;100.00;99600.06;6185199;23;19940;-86
2023/06/15 16:16:20;;;;;;;;;;;;;;;6.93;100.00;99608.88;6160090;23;19921;-86
2023/06/15 16:18:46;;;;;;;;;;;;;;;6.86;100.00;99605.56;6184945;23;20328;-89
2023/06/15 16:21:11;;;;;;;;;;;;;;;6.89;100.00;99607.22;6159985;23;19920;-88
2023/06/15 16:23:36;;;;;;;;;;;;;;;6.86;100.00;99607.31;6160485;23;20362;-89
2023/06/15 16:26:03;;;;;;;;;;;;;;;6.86;100.00;99604.69;6160646;23;20000;-90
2023/06/15 16:28:32;;;;;;;;;;;;;;;6.89;100.00;99612.50;6160256;23;19916;-87
2023/06/15 16:30:58;;;;;;;;;;;;;;;6.84;100.00;99601.25;6187272;23;19916;-93
2023/06/15 16:33:23;;;;;;;;;;;;;;;6.82;100.00;99610.97;6161466;23;19959;-95
2023/06/15 16:35:49;;;;;;;;;;;;;;;6.80;100.00;99600.50;6160550;23;20185;-90
2023/06/15 16:38:16;;;;;;;;;;;;;;;6.83;100.00;99607.41;6161662;23;19916;-87
2023/06/15 16:40:52;;;;;;;;;;;;;;;6.82;100.00;99603.94;6162109;23;19919;-88
2023/06/15 16:43:17;;;;;;;;;;;;;;;6.83;100.00;99604.78;6185579;23;19919;-86
2023/06/15 16:45:43;;;;;;;;;;;;;;;6.79;100.00;99601.38;6161059;23;19913;-86
2023/06/15 16:48:09;;;;;;;;;;;;;;;6.79;100.00;99598.75;6187587;23;20280;-86
2023/06/15 16:50:35;;;;;;;;;;;;;;;6.82;100.00;99597.81;6187167;23;19913;-86
2023/06/15 16:53:09;;;;;;;;;;;;;;;6.79;100.00;99595.25;6187781;23;19912;-87
2023/06/15 16:55:34;;;;;;;;;;;;;;;6.81;100.00;99602.22;6187604;23;19912;-87
2023/06/15 16:58:00;;;;;;;;;;;;;;;6.82;100.00;99603.06;6186280;23;19985;-87
2023/06/15 17:00:25;;;;;;;;;;;;;;;6.92;100.00;99612.41;6161069;23;19912;-87
2023/06/15 17:02:57;;;;;;;;;;;;;;;6.89;100.00;99608.13;6187656;23;20329;-89
2023/06/15 17:05:22;;;;;;;;;;;;;;;6.81;100.00;99606.59;6187586;23;19944;-88
2023/06/15 17:07:50;;;;;;;;;;;;;;;6.83;100.00;99616.19;6160388;23;19916;-86
2023/06/15 17:10:15;;;;;;;;;;;;;;;6.88;100.00;99618.69;6161683;23;19912;-86
2023/06/15 17:12:41;;;;;;;;;;;;;;;6.92;100.00;99620.31;6158983;23;19935;-86
2023/06/15 17:15:06;;;;;;;;;;;;;;;6.85;100.00;99617.00;6186198;23;19912;-86
2023/06/15 17:17:32;;;;;;;;;;;;;;;6.92;100.00;99615.03;6160110;23;19920;-86
2023/06/15 17:19:57;;;;;;;;;;;;;;;6.94;100.00;99626.41;6159953;23;19916;-87
2023/06/15 17:22:22;;;;;;;;;;;;;;;7.04;100.00;99614.69;6186540;23;19999;-88
2023/06/15 17:24:50;;;;;;;;;;;;;;;6.95;100.00;99616.72;6186871;23;20268;-86
2023/06/15 17:27:16;;;;;;;;;;;;;;;6.89;100.00;99625.66;6158167;23;20213;-92
2023/06/15 17:29:41;;;;;;;;;;;;;;;6.85;100.00;99624.06;6185950;23;19946;-90
2023/06/15 17:32:09;;;;;;;;;;;;;;;6.89;100.00;99633.56;6159525;23;19959;-86
2023/06/15 17:34:34;;;;;;;;;;;;;;;6.99;100.00;99627.13;6186711;23;19916;-86
2023/06/15 17:36:59;;;;;;;;;;;;;;;6.90;100.00;99627.41;6185899;23;20386;-91
2023/06/15 17:39:25;;;;;;;;;;;;;;;6.83;100.00;99633.75;6159500;23;20018;-88
2023/06/15 17:41:50;;;;;;;;;;;;;;;6.85;100.00;99634.59;6186494;23;19921;-92
2023/06/15 17:44:15;;;;;;;;;;;;;;;6.97;100.00;99625.44;6157436;23;20236;-87
2023/06/15 17:46:41;;;;;;;;;;;;;;;6.90;100.00;99628.25;6185547;23;19916;-86
2023/06/15 17:49:06;;;;;;;;;;;;;;;6.89;100.00;99628.31;6186109;23;19912;-90
2023/06/15 17:51:35;;;;;;;;;;;;;;;6.99;100.00;99636.78;6185889;23;19919;-88
2023/06/15 17:54:00;;;;;;;;;;;;;;;6.96;100.00;99635.13;6159585;23;20316;-88
2023/06/15 17:56:26;;;;;;;;;;;;;;;6.84;100.00;99633.72;6159757;23;20000;-89
2023/06/15 17:58:51;;;;;;;;;;;;;;;6.81;100.00;99627.69;6158447;23;20324;-87
2023/06/15 18:01:19;;;;;;;;;;;;;;;6.82;100.00;99630.25;6186286;23;20031;-92
2023/06/15 18:03:44;;;;;;;;;;;;;;;6.83;100.00;99636.38;6185838;23;19916;-87
2023/06/15 18:06:10;;;;;;;;;;;;;;;6.89;100.00;99628.31;6185819;23;19999;-87
2023/06/15 18:08:37;;;;;;;;;;;;;;;6.85;100.00;99640.72;6185649;23;19966;-89
2023/06/15 18:11:02;;;;;;;;;;;;;;;6.88;100.00;99642.41;6186065;23;19920;-89
2023/06/15 18:13:28;;;;;;;;;;;;;;;6.89;100.00;99641.47;6158491;23;19930;-88
2023/06/15 18:15:53;;;;;;;;;;;;;;;6.95;100.00;99643.06;6186297;23;20312;-88
2023/06/15 18:18:18;;;;;;;;;;;;;;;6.87;100.00;99638.88;6160094;23;19919;-88
2023/06/15 18:20:44;;;;;;;;;;;;;;;6.89;100.00;99636.22;6184660;23;19912;-87
2023/06/15 18:23:09;;;;;;;;;;;;;;;6.83;100.00;99639.03;6184823;23;19970;-91
2023/06/15 18:25:35;;;;;;;;;;;;;;;6.81;100.00;99638.22;6185111;23;19966;-89
2023/06/15 18:28:03;;;;;;;;;;;;;;;6.82;100.00;99646.06;6183192;23;19916;-87
2023/06/15 18:30:29;;;;;;;;;;;;;;;6.82;100.00;99639.94;6184198;23;19987;-93
2023/06/15 18:32:55;;;;;;;;;;;;;;;6.81;100.00;99643.47;6185845;23;19923;-87
2023/06/15 18:35:21;;;;;;;;;;;;;;;6.82;100.00;99647.84;6159053;23;19916;-90
2023/06/15 18:37:46;;;;;;;;;;;;;;;6.86;100.00;99644.19;6185189;23;19916;-87
2023/06/15 18:40:12;;;;;;;;;;;;;;;6.85;100.00;99645.13;6158756;23;19912;-85
2023/06/15 18:42:37;;;;;;;;;;;;;;;6.86;100.00;99641.56;6183150;23;19916;-87
2023/06/15 18:45:10;;;;;;;;;;;;;;;6.85;100.00;99645.13;6158712;23;20397;-87
2023/06/15 18:47:37;;;;;;;;;;;;;;;6.86;100.00;99645.09;6184474;23;19923;-87
2023/06/15 18:50:12;;;;;;;;;;;;;;;6.84;100.00;99644.25;6158824;23;19916;-91
2023/06/15 18:53:06;;;;;;;;;;;;;;;6.85;100.00;99639.84;6185283;23;19931;-93
2023/06/15 18:58:42;;;;;;;;;;;;;;;6.84;100.00;99641.59;6186115;23;20601;-88
2023/06/15 19:01:07;;;;;;;;;;;;;;;6.80;100.00;99641.78;6160717;23;19962;-86
2023/06/15 19:03:32;;;;;;;;;;;;;;;6.84;100.00;99648.66;6160847;23;19916;-86
2023/06/15 19:05:58;;;;;;;;;;;;;;;6.84;100.00;99648.66;6160994;23;19916;-87
2023/06/15 19:08:23;;;;;;;;;;;;;;;6.82;100.00;99645.22;6187620;23;19916;-90
2023/06/15 19:10:58;;;;;;;;;;;;;;;6.86;100.00;99647.72;6160907;23;19922;-90
2023/06/15 19:13:25;;;;;;;;;;;;;;;6.84;100.00;99648.66;6185751;23;20340;-88
2023/06/15 19:15:53;;;;;;;;;;;;;;;6.82;100.00;99650.47;6187534;23;19916;-93
2023/06/15 19:18:21;;;;;;;;;;;;;;;6.85;100.00;99655.66;6162230;23;19919;-89
2023/06/15 19:20:46;;;;;;;;;;;;;;;6.85;100.00;99655.66;6187394;23;20312;-86
2023/06/15 19:23:12;;;;;;;;;;;;;;;6.84;100.00;99659.19;6187424;23;19912;-87
2023/06/15 19:25:37;;;;;;;;;;;;;;;6.84;100.00;99648.66;6156130;23;19924;-90
2023/06/15 19:28:02;;;;;;;;;;;;;;;6.84;100.00;99664.47;6155966;23;19921;-86
2023/06/15 19:30:40;;;;;;;;;;;;;;;;;;;;;
2023/06/15 19:33:08;;;;;;;;;;;;;;;6.83;100.00;99660.97;6158541;23;19988;-86
2023/06/15 19:35:35;;;;;;;;;;;;;;;6.82;100.00;99664.50;6156214;23;20218;-89
2023/06/15 19:38:00;;;;;;;;;;;;;;;6.82;100.00;99658.38;6156432;23;19912;-90
2023/06/15 19:40:30;;;;;;;;;;;;;;;6.83;100.00;99662.72;6157491;23;19917;-86
2023/06/15 19:42:56;;;;;;;;;;;;;;;6.86;100.00;99665.25;6156746;23;19921;-91
2023/06/15 19:45:38;;;;;;;;;;;;;;;6.81;100.00;99667.19;6157723;23;19977;-87
2023/06/15 19:48:04;;;;;;;;;;;;;;;6.84;100.00;99670.59;6158270;23;20214;-86
2023/06/15 19:50:35;;;;;;;;;;;;;;;6.82;100.00;99676.81;6160659;23;19922;-90
2023/06/15 19:53:00;;;;;;;;;;;;;;;6.84;100.00;99673.22;6189142;23;19927;-87
2023/06/15 19:55:26;;;;;;;;;;;;;;;6.84;100.00;99681.13;6187455;23;19995;-88
2023/06/15 19:57:51;;;;;;;;;;;;;;;6.85;100.00;99679.38;6163343;23;19959;-88
2023/06/15 20:00:21;;;;;;;;;;;;;;;6.77;100.00;99686.63;6191846;23;19913;-91
2023/06/15 20:02:47;;;;;;;;;;;;;;;6.88;100.00;99692.44;6164821;23;19908;-92
2023/06/15 20:05:12;;;;;;;;;;;;;;;6.83;100.00;99691.69;6190442;23;19923;-89
2023/06/15 20:07:45;;;;;;;;;;;;;;;6.83;100.00;99694.31;6190333;23;19908;-90
2023/06/15 20:10:11;;;;;;;;;;;;;;;6.82;100.00;99703.16;6164316;23;19943;-91
2023/06/15 20:12:49;;;;;;;;;;;;;;;6.82;100.00;99704.00;6165009;23;19920;-89
2023/06/15 20:15:19;;;;;;;;;;;;;;;6.84;100.00;99703.97;6192255;23;20312;-91
2023/06/15 20:17:47;;;;;;;;;;;;;;;6.84;100.00;99706.59;6161946;23;20003;-88
2023/06/15 20:20:15;;;;;;;;;;;;;;;6.82;100.00;99703.16;6161814;23;19920;-90
2023/06/15 20:22:42;;;;;;;;;;;;;;;6.81;100.00;99706.69;6187652;23;19971;-89
2023/06/15 20:25:08;;;;;;;;;;;;;;;6.82;100.00;99714.53;6188329;23;20329;-89
2023/06/15 20:27:33;;;;;;;;;;;;;;;6.84;100.00;99714.50;6184927;23;19912;-88
2023/06/15 20:29:58;;;;;;;;;;;;;;;6.81;100.00;99717.22;6186425;23;19912;-95
2023/06/15 20:32:26;;;;;;;;;;;;;;;6.82;100.00;99719.81;6188061;23;19912;-88
2023/06/15 20:34:59;;;;;;;;;;;;;;;6.84;100.00;99717.13;6159527;23;19919;-89
2023/06/15 20:37:24;;;;;;;;;;;;;;;6.88;100.00;99713.53;6186434;23;19966;-92
2023/06/15 20:39:52;;;;;;;;;;;;;;;6.84;100.00;99722.41;6185802;23;19916;-91
2023/06/15 20:42:19;;;;;;;;;;;;;;;6.83;100.00;99723.31;6159115;23;19912;-90
2023/06/15 20:44:48;;;;;;;;;;;;;;;6.84;100.00;99727.66;6160809;23;19987;-89
2023/06/15 20:47:14;;;;;;;;;;;;;;;6.82;100.00;99732.97;6160302;23;19916;-91
2023/06/15 20:49:41;;;;;;;;;;;;;;;6.84;100.00;99732.94;6186417;23;19921;-92
2023/06/15 20:52:06;;;;;;;;;;;;;;;6.82;100.00;99727.72;6161294;23;19913;-89
2023/06/15 20:54:36;;;;;;;;;;;;;;;6.82;100.00;99724.22;6188974;23;20316;-89
2023/06/15 20:57:09;;;;;;;;;;;;;;;6.83;100.00;99725.94;6162712;23;19912;-90
2023/06/15 20:59:34;;;;;;;;;;;;;;;6.84;100.00;99727.66;6187122;23;19916;-90
2023/06/15 21:02:00;;;;;;;;;;;;;;;6.82;100.00;99719.81;6162224;23;19999;-90
2023/06/15 21:04:25;;;;;;;;;;;;;;;6.83;100.00;99721.56;6186036;23;19916;-88
2023/06/15 21:06:50;;;;;;;;;;;;;;;6.80;100.00;99726.91;6186416;23;19970;-89
2023/06/15 21:09:26;;;;;;;;;;;;;;;6.78;100.00;99722.56;6160134;23;19912;-88
2023/06/15 21:11:56;;;;;;;;;;;;;;;6.76;100.00;99730.53;6186594;23;19991;-88
2023/06/15 21:14:21;;;;;;;;;;;;;;;6.80;100.00;99720.78;6184301;23;19912;-88
2023/06/15 21:16:56;;;;;;;;;;;;;;;6.81;100.00;99722.50;6159300;23;19967;-88
2023/06/15 21:19:23;;;;;;;;;;;;;;;6.77;100.00;99724.34;6159239;23;19913;-88
2023/06/15 21:21:49;;;;;;;;;;;;;;;6.76;100.00;99730.53;6185701;23;19939;-88